Time;durP1;ratioP1;P1;durP2;ratioP2;P2;SDS_P1;SDS_P2;PMS_P1;PMS_P2;Temp;Humidity;BMP_temperature;BMP_pressure;BME280_temperature;BME280_humidity;BME280_pressure;Samples;Min_cycle;Max_cycle;Signal;HPM_P1;HPM_P2
2022/06/07 00:01:58;;;;;;;0.20;0.20;;;19.20;76.50;;;;;;4193257;28;20492;-70
2022/06/07 00:04:22;;;;;;;0.00;0.00;;;19.20;76.50;;;;;;4193563;28;20067;-70
2022/06/07 00:06:44;;;;;;;0.00;0.00;;;19.20;76.60;;;;;;4192221;28;20051;-70
2022/06/07 00:09:06;;;;;;;0.00;0.00;;;19.20;76.50;;;;;;4193490;28;20055;-70
2022/06/07 00:11:28;;;;;;;0.00;0.00;;;19.20;76.40;;;;;;4193620;28;20399;-70
2022/06/07 00:13:51;;;;;;;0.85;0.30;;;19.10;76.40;;;;;;4192478;28;20496;-70
2022/06/07 00:16:13;;;;;;;0.00;0.00;;;19.10;76.40;;;;;;4193005;28;20040;-70
2022/06/07 00:18:35;;;;;;;0.00;0.00;;;19.10;76.40;;;;;;4193405;28;20040;-70
2022/06/07 00:21:00;;;;;;;0.00;0.00;;;19.10;76.50;;;;;;4193061;28;20055;-70
2022/06/07 00:23:22;;;;;;;0.00;0.00;;;19.10;76.60;;;;;;4193585;28;20127;-70
2022/06/07 00:25:46;;;;;;;0.00;0.00;;;19.10;76.60;;;;;;4193460;28;20052;-69
2022/06/07 00:28:08;;;;;;;0.00;0.00;;;19.10;76.60;;;;;;4193362;28;20049;-69
2022/06/07 00:30:31;;;;;;;0.00;0.00;;;19.10;76.50;;;;;;4192149;28;20132;-70
2022/06/07 00:32:54;;;;;;;0.00;0.00;;;19.10;76.60;;;;;;4192883;28;20053;-70
2022/06/07 00:35:16;;;;;;;0.00;0.00;;;19.10;76.60;;;;;;4193410;28;20040;-70
2022/06/07 00:37:40;;;;;;;0.00;0.00;;;19.10;76.60;;;;;;4193253;28;20048;-70
2022/06/07 00:40:02;;;;;;;0.22;0.22;;;19.10;76.60;;;;;;4191966;28;20041;-70
2022/06/07 00:42:25;;;;;;;0.03;0.03;;;19.10;76.70;;;;;;4191662;28;20041;-70
2022/06/07 00:44:47;;;;;;;0.00;0.00;;;19.10;76.70;;;;;;4192918;28;20121;-70
2022/06/07 00:47:11;;;;;;;0.00;0.00;;;19.10;76.80;;;;;;4191647;28;20052;-70
2022/06/07 00:49:39;;;;;;;0.00;0.00;;;19.10;76.80;;;;;;4192387;28;20075;-70
2022/06/07 00:52:01;;;;;;;0.10;0.10;;;19.10;76.90;;;;;;4192653;28;20124;-70
2022/06/07 00:54:27;;;;;;;0.00;0.00;;;19.10;76.80;;;;;;4177217;28;20075;-74
2022/06/07 00:56:56;;;;;;;0.00;0.00;;;19.10;76.70;;;;;;4190868;28;20048;-72
2022/06/07 00:59:22;;;;;;;0.10;0.10;;;19.10;76.60;;;;;;4190589;28;20533;-70
2022/06/07 01:01:45;;;;;;;0.20;0.20;;;19.10;76.60;;;;;;4175617;28;20044;-70
2022/06/07 01:04:07;;;;;;;0.40;0.40;;;19.10;76.50;;;;;;4174220;28;20045;-70
2022/06/07 01:11:50;;;;;;;0.15;0.15;;;19.00;76.20;;;;;;4190578;28;20044;-70
2022/06/07 01:14:14;;;;;;;0.28;0.28;;;19.00;76.40;;;;;;4191232;28;20052;-70
2022/06/07 01:16:36;;;;;;;0.00;0.00;;;19.00;76.40;;;;;;4175843;28;20047;-70
2022/06/07 01:18:58;;;;;;;0.00;0.00;;;19.00;76.50;;;;;;4174315;28;20049;-71
2022/06/07 01:21:32;;;;;;;0.00;0.00;;;19.00;76.60;;;;;;4174348;28;20132;-70
2022/06/07 01:23:56;;;;;;;0.00;0.00;;;19.00;76.70;;;;;;4174788;28;20051;-71
2022/06/07 01:26:23;;;;;;;0.00;0.00;;;19.00;76.60;;;;;;4174142;28;20500;-71
2022/06/07 01:28:46;;;;;;;0.10;0.10;;;19.00;76.40;;;;;;4161133;28;20047;-70
2022/06/07 01:31:09;;;;;;;0.00;0.00;;;19.00;76.50;;;;;;4174592;28;20617;-70
2022/06/07 01:33:31;;;;;;;0.35;0.35;;;19.00;77.40;;;;;;4174524;28;20044;-70
2022/06/07 01:36:00;;;;;;;0.15;0.15;;;19.00;77.60;;;;;;4174532;28;20719;-70
2022/06/07 01:38:24;;;;;;;0.20;0.20;;;18.90;76.50;;;;;;4159864;28;20042;-70
2022/06/07 01:43:30;;;;;;;0.00;0.00;;;18.90;76.50;;;;;;4174259;28;20568;-69
2022/06/07 01:45:52;;;;;;;0.00;0.00;;;18.90;76.60;;;;;;4191001;28;20502;-69
2022/06/07 01:48:15;;;;;;;0.00;0.00;;;18.90;77.00;;;;;;4190994;28;20040;-69
2022/06/07 01:50:37;;;;;;;0.10;0.10;;;18.90;76.60;;;;;;4192267;28;20044;-69
2022/06/07 01:52:59;;;;;;;0.00;0.00;;;18.90;76.70;;;;;;4191957;28;20052;-70
2022/06/07 01:55:25;;;;;;;0.20;0.20;;;18.90;76.70;;;;;;4190720;28;20299;-69
2022/06/07 01:57:55;;;;;;;0.00;0.00;;;18.90;77.50;;;;;;4190676;28;20044;-70
2022/06/07 02:00:18;;;;;;;0.10;0.10;;;18.90;76.70;;;;;;4190573;28;20404;-70
2022/06/07 02:02:42;;;;;;;0.00;0.00;;;18.90;76.70;;;;;;4190472;28;20499;-70
2022/06/07 02:05:07;;;;;;;4.80;0.73;;;18.90;76.70;;;;;;4190465;28;20045;-70
2022/06/07 02:07:30;;;;;;;0.10;0.10;;;18.90;76.60;;;;;;4190453;28;20071;-70
2022/06/07 02:09:57;;;;;;;0.10;0.10;;;18.90;76.50;;;;;;4176060;28;20045;-70
2022/06/07 02:12:20;;;;;;;0.00;0.00;;;18.90;76.60;;;;;;4190574;28;20609;-71
2022/06/07 02:14:43;;;;;;;0.00;0.00;;;18.90;76.80;;;;;;4190375;28;20557;-71
2022/06/07 02:17:05;;;;;;;5.22;0.98;;;18.90;77.60;;;;;;4191942;28;20128;-71
2022/06/07 02:19:35;;;;;;;0.20;0.20;;;18.90;76.60;;;;;;4189753;28;20075;-70
2022/06/07 02:21:57;;;;;;;0.65;0.65;;;18.90;76.60;;;;;;4190072;28;20052;-71
2022/06/07 02:24:19;;;;;;;0.00;0.00;;;18.90;76.60;;;;;;4192001;28;20049;-71
2022/06/07 02:26:45;;;;;;;0.00;0.00;;;18.90;76.70;;;;;;4190702;28;20465;-71
2022/06/07 02:29:14;;;;;;;0.00;0.00;;;18.90;76.60;;;;;;4190688;28;20498;-70
2022/06/07 02:31:38;;;;;;;0.00;0.00;;;18.90;76.60;;;;;;4189933;28;20065;-71
2022/06/07 02:34:01;;;;;;;0.00;0.00;;;18.90;76.50;;;;;;4190594;28;20041;-70
2022/06/07 02:36:23;;;;;;;0.73;0.73;;;18.90;77.50;;;;;;4191707;28;20044;-72
2022/06/07 02:38:47;;;;;;;0.10;0.10;;;18.90;76.40;;;;;;4174031;28;20047;-71
2022/06/07 02:41:12;;;;;;;0.00;0.00;;;18.80;76.50;;;;;;4159710;28;20069;-71
2022/06/07 02:43:34;;;;;;;0.22;0.22;;;18.80;76.50;;;;;;4160807;28;20076;-70
2022/06/07 02:45:58;;;;;;;0.15;0.15;;;18.80;76.30;;;;;;4146877;28;20077;-71
2022/06/07 02:48:20;;;;;;;0.22;0.22;;;18.80;76.50;;;;;;4161980;28;20061;-71
2022/06/07 02:50:42;;;;;;;0.00;0.00;;;18.80;76.50;;;;;;4189734;28;20040;-71
2022/06/07 02:53:05;;;;;;;0.00;0.00;;;18.80;76.60;;;;;;4195149;28;20040;-70
2022/06/07 02:55:29;;;;;;;0.00;0.00;;;18.80;76.30;;;;;;4193376;28;20089;-70
2022/06/07 02:57:58;;;;;;;0.20;0.20;;;18.80;77.20;;;;;;4193315;28;20048;-71
2022/06/07 03:00:23;;;;;;;0.00;0.00;;;18.80;76.40;;;;;;4193287;28;20123;-71
2022/06/07 03:02:48;;;;;;;0.00;0.00;;;18.80;76.50;;;;;;4194779;28;20108;-71
2022/06/07 03:05:12;;;;;;;0.00;0.00;;;18.80;76.60;;;;;;4192681;28;20049;-71
2022/06/07 03:07:42;;;;;;;0.25;0.25;;;18.80;76.80;;;;;;4193550;28;20055;-71
2022/06/07 03:10:05;;;;;;;0.00;0.00;;;18.80;76.70;;;;;;4192803;28;20049;-72
2022/06/07 03:12:28;;;;;;;0.93;0.93;;;18.80;76.60;;;;;;4193262;28;20049;-71
2022/06/07 03:14:50;;;;;;;0.08;0.08;;;18.80;76.40;;;;;;4193102;28;20046;-70
2022/06/07 03:17:12;;;;;;;0.00;0.00;;;18.80;76.30;;;;;;4193330;28;20040;-70
2022/06/07 03:19:36;;;;;;;0.00;0.00;;;18.80;76.40;;;;;;4194031;28;20413;-70
2022/06/07 03:22:00;;;;;;;0.00;0.00;;;18.80;76.60;;;;;;4193143;28;20044;-70
2022/06/07 03:24:22;;;;;;;0.00;0.00;;;18.80;76.60;;;;;;4176464;28;20056;-70
2022/06/07 03:26:47;;;;;;;0.10;0.10;;;18.80;76.60;;;;;;4176795;28;20045;-73
2022/06/07 03:29:11;;;;;;;0.00;0.00;;;18.70;76.60;;;;;;4162406;28;20049;-71
2022/06/07 03:31:34;;;;;;;0.00;0.00;;;18.70;76.70;;;;;;4175873;28;20060;-71
2022/06/07 03:33:59;;;;;;;0.00;0.00;;;18.70;76.70;;;;;;4191847;28;20044;-70
2022/06/07 03:36:31;;;;;;;0.22;0.22;;;18.80;76.70;;;;;;4192502;28;20045;-71
2022/06/07 03:38:55;;;;;;;0.00;0.00;;;18.80;76.80;;;;;;4192607;28;20048;-71
2022/06/07 03:41:22;;;;;;;0.40;0.40;;;18.80;76.80;;;;;;4178469;28;20119;-72
2022/06/07 03:43:48;;;;;;;0.00;0.00;;;18.70;76.60;;;;;;4192723;28;20801;-72
2022/06/07 03:46:13;;;;;;;0.45;0.45;;;18.80;76.80;;;;;;4178531;28;20059;-74
2022/06/07 03:48:37;;;;;;;0.40;0.40;;;18.80;76.80;;;;;;4192232;28;20434;-72
2022/06/07 03:50:59;;;;;;;0.55;0.55;;;18.70;76.70;;;;;;4192891;28;20344;-73
2022/06/07 03:53:26;;;;;;;0.05;0.05;;;18.70;76.80;;;;;;4178520;28;20219;-73
2022/06/07 03:55:48;;;;;;;0.00;0.00;;;18.80;76.90;;;;;;4194088;28;20054;-72
2022/06/07 03:58:15;;;;;;;0.00;0.00;;;18.70;76.80;;;;;;4192341;28;20080;-73
2022/06/07 04:00:37;;;;;;;0.00;0.00;;;18.70;76.70;;;;;;4175679;28;20041;-72
2022/06/07 04:03:03;;;;;;;0.00;0.00;;;18.70;76.70;;;;;;4173535;28;20048;-72
2022/06/07 04:05:25;;;;;;;0.05;0.05;;;18.70;76.80;;;;;;4172765;28;20526;-73
2022/06/07 04:10:29;;;;;;;0.00;0.00;;;18.70;76.60;;;;;;4192193;28;20068;-73
2022/06/07 04:12:52;;;;;;;17.23;0.80;;;18.70;76.90;;;;;;4192005;28;20040;-73
2022/06/07 04:15:18;;;;;;;0.17;0.17;;;18.70;77.00;;;;;;4191811;28;20048;-74
2022/06/07 04:17:40;;;;;;;0.00;0.00;;;18.70;77.00;;;;;;4192486;28;20522;-73
2022/06/07 04:20:18;;;;;;;0.15;0.15;;;18.70;77.10;;;;;;4192062;28;20416;-74
2022/06/07 04:22:41;;;;;;;0.28;0.28;;;18.70;77.10;;;;;;4174862;28;20405;-74
2022/06/07 04:25:05;;;;;;;0.05;0.05;;;18.70;77.10;;;;;;4175523;28;20820;-74
2022/06/07 04:27:33;;;;;;;0.03;0.03;;;18.70;77.10;;;;;;4175092;28;20131;-73
2022/06/07 04:29:55;;;;;;;0.00;0.00;;;18.70;77.10;;;;;;4175008;28;20056;-74
2022/06/07 04:32:19;;;;;;;0.28;0.28;;;18.70;77.10;;;;;;4190653;28;20406;-74
2022/06/07 04:34:44;;;;;;;0.00;0.00;;;18.70;77.20;;;;;;4191744;28;20465;-73
2022/06/07 04:37:08;;;;;;;0.00;0.00;;;18.70;77.20;;;;;;4192190;28;20044;-73
2022/06/07 04:39:30;;;;;;;0.00;0.00;;;18.70;77.10;;;;;;4193201;28;20053;-73
2022/06/07 04:42:00;;;;;;;0.00;0.00;;;18.70;77.10;;;;;;4191749;28;20453;-73
2022/06/07 04:44:35;;;;;;;0.93;0.57;;;18.70;77.30;;;;;;4191269;28;20049;-72
2022/06/07 04:46:57;;;;;;;0.00;0.00;;;18.70;77.30;;;;;;4175447;28;20049;-73
2022/06/07 04:49:20;;;;;;;0.00;0.00;;;18.70;78.10;;;;;;4161150;28;20428;-73
2022/06/07 04:51:42;;;;;;;0.17;0.17;;;18.70;77.20;;;;;;4160961;28;20045;-73
2022/06/07 04:54:27;;;;;;;0.00;0.00;;;18.70;77.20;;;;;;4176371;28;20484;-74
2022/06/07 04:56:51;;;;;;;0.00;0.00;;;18.70;77.10;;;;;;4174875;28;20041;-73
2022/06/07 04:59:14;;;;;;;0.03;0.03;;;18.70;77.10;;;;;;4174432;28;20053;-73
2022/06/07 05:01:47;;;;;;;1.48;1.05;;;18.70;77.20;;;;;;4174813;28;20040;-73
2022/06/07 05:04:16;;;;;;;0.22;0.22;;;18.70;77.10;;;;;;4173703;28;20059;-70
2022/06/07 05:06:41;;;;;;;0.00;0.00;;;18.70;77.00;;;;;;4174690;28;20044;-74
2022/06/07 05:09:31;;;;;;;0.00;0.00;;;18.70;77.60;;;;;;4181680;28;20107;-74
2022/06/07 05:11:59;;;;;;;0.00;0.00;;;18.70;77.30;;;;;;4176494;28;20503;-75
2022/06/07 05:14:27;;;;;;;1.08;1.08;;;18.70;77.30;;;;;;4191584;28;20131;-75
2022/06/07 05:16:52;;;;;;;0.00;0.00;;;18.70;77.00;;;;;;4202347;28;20044;-76
2022/06/07 05:19:21;;;;;;;0.50;0.37;;;18.70;77.00;;;;;;4187366;28;20110;-76
2022/06/07 05:21:50;;;;;;;0.60;0.60;;;18.70;77.00;;;;;;4184940;28;20299;-74
2022/06/07 05:24:12;;;;;;;0.00;0.00;;;18.70;77.00;;;;;;4174750;28;20146;-75
2022/06/07 05:26:39;;;;;;;0.03;0.03;;;18.70;77.00;;;;;;4173922;28;20419;-76
2022/06/07 05:29:02;;;;;;;0.57;0.57;;;18.70;77.00;;;;;;4174763;28;20461;-76
2022/06/07 05:31:29;;;;;;;0.10;0.10;;;18.70;76.80;;;;;;4174677;28;20049;-76
2022/06/07 05:33:53;;;;;;;0.10;0.10;;;18.70;76.70;;;;;;4175720;28;20064;-77
2022/06/07 05:36:15;;;;;;;0.30;0.30;;;18.70;76.60;;;;;;4178003;28;20514;-76
2022/06/07 05:38:40;;;;;;;1.33;1.25;;;18.60;76.50;;;;;;4191000;28;20045;-76
2022/06/07 05:41:14;;;;;;;;;;;18.70;76.40;;;;;;4190644;28;20055;-75
2022/06/07 05:43:37;;;;;;;0.00;0.00;;;18.60;76.40;;;;;;4191325;28;19978;-76
2022/06/07 05:46:01;;;;;;;0.00;0.00;;;18.60;76.40;;;;;;4192424;28;20045;-76
2022/06/07 05:48:35;;;;;;;0.00;0.00;;;18.60;76.40;;;;;;4176580;28;20059;-75
2022/06/07 05:51:01;;;;;;;1.77;0.70;;;18.60;76.30;;;;;;4190780;28;20054;-76
2022/06/07 05:53:24;;;;;;;0.10;0.10;;;18.60;76.50;;;;;;4190604;28;20045;-75
2022/06/07 05:55:47;;;;;;;0.00;0.00;;;18.60;76.50;;;;;;4190890;28;20040;-75
2022/06/07 05:58:12;;;;;;;0.00;0.00;;;18.60;76.50;;;;;;4190945;28;20048;-75
2022/06/07 06:00:35;;;;;;;0.00;0.00;;;18.60;76.60;;;;;;4190606;28;20041;-74
2022/06/07 06:02:59;;;;;;;2.90;0.80;;;18.60;76.60;;;;;;4190804;28;20055;-75
2022/06/07 06:05:33;;;;;;;0.00;0.00;;;18.60;76.50;;;;;;4190141;28;20048;-75
2022/06/07 06:10:45;;;;;;;0.00;0.00;;;18.60;76.50;;;;;;4160156;28;20053;-67
2022/06/07 06:13:08;;;;;;;0.00;0.00;;;18.60;76.30;;;;;;4174615;28;20107;-66
2022/06/07 06:15:30;;;;;;;0.00;0.00;;;18.50;76.10;;;;;;4182957;28;20144;-75
2022/06/07 06:17:52;;;;;;;0.00;0.00;;;18.50;75.90;;;;;;4189453;28;20135;-75
2022/06/07 06:20:25;;;;;;;0.00;0.00;;;18.50;75.90;;;;;;4181385;28;20095;-70
2022/06/07 06:22:48;;;;;;;0.10;0.10;;;18.50;75.90;;;;;;4188727;28;20574;-71
2022/06/07 06:25:12;;;;;;;0.00;0.00;;;18.50;75.90;;;;;;4185498;28;20052;-71
2022/06/07 06:27:35;;;;;;;0.00;0.00;;;18.50;75.90;;;;;;4164777;28;20048;-71
2022/06/07 06:30:00;;;;;;;0.00;0.00;;;18.50;75.90;;;;;;4190869;28;20052;-70
2022/06/07 06:32:23;;;;;;;0.00;0.00;;;18.50;75.90;;;;;;4190532;28;20051;-70
2022/06/07 06:34:46;;;;;;;0.10;0.10;;;18.50;75.90;;;;;;4180779;28;20411;-70
2022/06/07 06:37:09;;;;;;;0.20;0.20;;;18.50;75.80;;;;;;4178876;28;20041;-70
2022/06/07 06:39:34;;;;;;;0.00;0.00;;;18.50;75.70;;;;;;4175630;28;20393;-69
2022/06/07 06:41:58;;;;;;;0.17;0.17;;;18.50;75.90;;;;;;4174853;28;20500;-64
2022/06/07 06:44:35;;;;;;;0.00;0.00;;;18.50;75.90;;;;;;4190698;28;20045;-69
2022/06/07 06:46:57;;;;;;;0.00;0.00;;;18.50;75.90;;;;;;4192213;28;20131;-70
2022/06/07 06:49:20;;;;;;;0.00;0.00;;;18.60;76.90;;;;;;4189578;28;20052;-70
2022/06/07 06:51:43;;;;;;;0.00;0.00;;;18.50;75.90;;;;;;4183300;28;20051;-70
2022/06/07 06:54:08;;;;;;;0.32;0.32;;;18.50;75.90;;;;;;4190212;28;20155;-70
2022/06/07 06:56:39;;;;;;;0.43;0.32;;;18.50;76.00;;;;;;4175747;28;20045;-70
2022/06/07 06:59:15;;;;;;;0.00;0.00;;;18.50;75.90;;;;;;4176265;28;20052;-70
2022/06/07 07:01:41;;;;;;;0.00;0.00;;;18.50;76.90;;;;;;4184417;28;20051;-70
2022/06/07 07:04:07;;;;;;;0.00;0.00;;;18.50;76.00;;;;;;4187691;28;20110;-71
2022/06/07 07:06:30;;;;;;;0.00;0.00;;;18.50;76.10;;;;;;4177749;28;20073;-71
2022/06/07 07:08:55;;;;;;;0.20;0.20;;;18.50;76.10;;;;;;4190583;28;20041;-71
2022/06/07 07:11:24;;;;;;;0.00;0.00;;;18.50;76.10;;;;;;4160621;28;20505;-70
2022/06/07 07:13:51;;;;;;;0.00;0.00;;;18.50;76.20;;;;;;4182268;28;20041;-71
2022/06/07 07:16:19;;;;;;;0.00;0.00;;;18.50;77.10;;;;;;4191556;28;20511;-71
2022/06/07 07:18:41;;;;;;;0.00;0.00;;;18.50;76.20;;;;;;4190206;28;20048;-71
2022/06/07 07:21:05;;;;;;;0.00;0.00;;;18.50;76.20;;;;;;4178182;28;20049;-71
2022/06/07 07:23:28;;;;;;;0.00;0.00;;;18.50;76.20;;;;;;4174317;28;20522;-73
2022/06/07 07:25:51;;;;;;;0.05;0.05;;;18.50;76.00;;;;;;4176437;28;20044;-71
2022/06/07 07:28:14;;;;;;;0.00;0.00;;;18.50;76.00;;;;;;4179665;28;20079;-72
2022/06/07 07:30:37;;;;;;;0.00;0.00;;;18.50;75.90;;;;;;4179464;28;20164;-72
2022/06/07 07:33:01;;;;;;;0.00;0.00;;;18.50;75.90;;;;;;4195421;28;20068;-72
2022/06/07 07:35:24;;;;;;;0.10;0.10;;;18.50;76.00;;;;;;4181066;28;20064;-72
2022/06/07 07:37:52;;;;;;;0.00;0.00;;;18.50;75.90;;;;;;4173718;28;20049;-71
2022/06/07 07:40:16;;;;;;;0.00;0.00;;;18.50;75.90;;;;;;4186148;28;20098;-71
2022/06/07 07:42:39;;;;;;;2.83;1.55;;;18.50;75.90;;;;;;4176202;28;20060;-71
2022/06/07 07:45:06;;;;;;;0.22;0.22;;;18.50;75.90;;;;;;4173357;28;20537;-71
2022/06/07 07:47:28;;;;;;;0.00;0.00;;;18.50;75.80;;;;;;4188050;28;20044;-71
2022/06/07 07:49:53;;;;;;;0.00;0.00;;;18.50;75.70;;;;;;4178091;28;20056;-72
2022/06/07 07:52:19;;;;;;;0.00;0.00;;;18.50;75.80;;;;;;4177191;28;20055;-71
2022/06/07 07:54:49;;;;;;;0.00;0.00;;;18.50;75.80;;;;;;4184949;28;20455;-71
2022/06/07 07:57:11;;;;;;;0.00;0.00;;;18.50;75.80;;;;;;4186170;28;20541;-72
2022/06/07 07:59:38;;;;;;;0.00;0.00;;;18.50;75.80;;;;;;4176193;28;20068;-72
2022/06/07 08:02:01;;;;;;;0.00;0.00;;;18.50;75.80;;;;;;4176980;28;20389;-72
2022/06/07 08:04:24;;;;;;;0.00;0.00;;;18.50;75.90;;;;;;4181122;28;20056;-72
2022/06/07 08:06:50;;;;;;;0.00;0.00;;;18.50;75.90;;;;;;4177486;28;20094;-72
2022/06/07 08:09:12;;;;;;;0.03;0.03;;;18.60;75.90;;;;;;4178506;28;20045;-73
2022/06/07 08:11:36;;;;;;;0.00;0.00;;;18.50;75.80;;;;;;4183780;28;20135;-73
2022/06/07 08:13:59;;;;;;;0.00;0.00;;;18.60;76.00;;;;;;4184378;28;20056;-72
2022/06/07 08:16:22;;;;;;;0.00;0.00;;;18.60;76.00;;;;;;4184954;28;20048;-72
2022/06/07 08:18:46;;;;;;;0.00;0.00;;;18.60;76.00;;;;;;4184584;28;20053;-72
2022/06/07 08:21:10;;;;;;;0.00;0.00;;;18.60;76.00;;;;;;4174164;28;20045;-71
2022/06/07 08:23:34;;;;;;;0.00;0.00;;;18.60;76.00;;;;;;4172639;28;20053;-71
2022/06/07 08:25:56;;;;;;;0.00;0.00;;;18.60;76.00;;;;;;4175027;28;20044;-72
2022/06/07 08:28:18;;;;;;;0.00;0.00;;;18.60;76.00;;;;;;4190232;28;20062;-72
2022/06/07 08:30:45;;;;;;;0.00;0.00;;;18.60;76.00;;;;;;4187594;28;20052;-71
2022/06/07 08:38:26;;;;;;;0.00;0.00;;;18.60;76.00;;;;;;4173556;28;20040;-72
2022/06/07 08:40:50;;;;;;;0.00;0.00;;;18.60;76.00;;;;;;4181180;28;20461;-70
2022/06/07 08:43:18;;;;;;;0.00;0.00;;;18.60;76.00;;;;;;4183370;28;20044;-68
2022/06/07 08:45:43;;;;;;;0.00;0.00;;;18.60;76.00;;;;;;4181568;28;20044;-70
2022/06/07 08:48:10;;;;;;;0.00;0.00;;;18.60;76.90;;;;;;4181143;28;20045;-70
2022/06/07 08:50:35;;;;;;;1.48;1.38;;;18.60;76.10;;;;;;4175530;28;20135;-70
2022/06/07 08:53:02;;;;;;;0.00;0.00;;;18.50;76.10;;;;;;4178478;28;20509;-69
2022/06/07 08:55:28;;;;;;;0.00;0.00;;;18.60;76.20;;;;;;4188514;28;20101;-69
2022/06/07 08:57:59;;;;;;;0.10;0.10;;;18.60;76.20;;;;;;4174847;28;20083;-69
2022/06/07 09:00:24;;;;;;;0.00;0.00;;;18.60;76.20;;;;;;4174503;28;20099;-68
2022/06/07 09:03:25;;;;;;;0.00;0.00;;;18.60;76.20;;;;;;4179541;28;20120;-69
2022/06/07 09:05:54;;;;;;;0.00;0.00;;;18.60;76.10;;;;;;4173875;28;20044;-68
2022/06/07 09:08:16;;;;;;;0.00;0.00;;;18.60;76.90;;;;;;4185078;28;20081;-68
2022/06/07 09:13:24;;;;;;;0.00;0.00;;;18.60;76.30;;;;;;4189913;28;20052;-68
2022/06/07 09:15:49;;;;;;;0.00;0.00;;;18.60;76.30;;;;;;4173938;28;20075;-69
2022/06/07 09:18:15;;;;;;;0.00;0.00;;;18.60;76.20;;;;;;4173980;28;20045;-69
2022/06/07 09:20:41;;;;;;;0.00;0.00;;;18.60;76.30;;;;;;4189618;28;20084;-69
2022/06/07 09:23:06;;;;;;;0.00;0.00;;;18.60;76.30;;;;;;4189363;28;20041;-69
2022/06/07 09:25:34;;;;;;;0.00;0.00;;;18.60;76.20;;;;;;4182874;28;20486;-68
2022/06/07 09:27:59;;;;;;;0.00;0.00;;;18.70;76.20;;;;;;4171863;28;20136;-69
2022/06/07 09:30:26;;;;;;;0.00;0.00;;;18.70;76.20;;;;;;4183108;28;20071;-69
2022/06/07 09:32:50;;;;;;;0.00;0.00;;;18.70;76.30;;;;;;4189774;28;20396;-69
2022/06/07 09:35:21;;;;;;;0.00;0.00;;;18.70;76.20;;;;;;4177638;28;20073;-69
2022/06/07 09:37:50;;;;;;;0.00;0.00;;;18.70;76.40;;;;;;4183242;28;20689;-68
2022/06/07 09:40:27;;;;;;;1.17;1.10;;;18.70;76.40;;;;;;4173855;28;20140;-68
2022/06/07 09:43:02;;;;;;;0.03;0.03;;;18.70;76.40;;;;;;4173498;28;20053;-68
2022/06/07 09:45:29;;;;;;;0.20;0.20;;;18.70;76.40;;;;;;4178451;28;20044;-68
2022/06/07 09:47:51;;;;;;;0.00;0.00;;;18.70;76.30;;;;;;4178753;28;20191;-67
2022/06/07 09:50:20;;;;;;;0.00;0.00;;;18.70;76.20;;;;;;4180062;28;20049;-69
2022/06/07 09:52:46;;;;;;;0.00;0.00;;;18.70;76.20;;;;;;4183620;28;20052;-69
2022/06/07 09:55:21;;;;;;;0.85;0.63;;;18.70;76.20;;;;;;4183711;28;20403;-71
2022/06/07 09:57:50;;;;;;;0.38;0.38;;;18.70;76.20;;;;;;4186142;28;20049;-69
2022/06/07 10:00:19;;;;;;;0.00;0.00;;;18.70;76.10;;;;;;4185559;28;20484;-70
2022/06/07 10:03:21;;;;;;;0.10;0.10;;;18.70;76.10;;;;;;4188011;28;20049;-68
2022/06/07 10:05:50;;;;;;;0.00;0.00;;;18.70;76.20;;;;;;4181782;28;20066;-69
2022/06/07 10:08:26;;;;;;;0.00;0.00;;;18.70;76.10;;;;;;4172940;28;20064;-69
2022/06/07 10:10:54;;;;;;;0.00;0.00;;;18.70;76.20;;;;;;4178994;28;20476;-69
2022/06/07 10:13:26;;;;;;;0.00;0.00;;;18.70;76.20;;;;;;4182046;28;20846;-68
2022/06/07 10:15:59;;;;;;;0.35;0.35;;;18.70;76.00;;;;;;4189147;28;20054;-69
2022/06/07 10:18:35;;;;;;;0.00;0.00;;;18.70;76.10;;;;;;4180706;28;20049;-69
2022/06/07 10:21:20;;;;;;;0.10;0.10;;;18.70;76.00;;;;;;4175817;28;20052;-69
2022/06/07 10:23:59;;;;;;;0.00;0.00;;;18.70;76.00;;;;;;4188679;28;20044;-68
2022/06/07 10:26:31;;;;;;;0.00;0.00;;;18.70;76.10;;;;;;4173745;28;20938;-68
2022/06/07 10:29:08;;;;;;;0.00;0.00;;;18.70;76.00;;;;;;4178603;28;20056;-68
2022/06/07 10:31:39;;;;;;;0.00;0.00;;;18.70;75.90;;;;;;4187696;28;20047;-68
2022/06/07 10:34:07;;;;;;;0.00;0.00;;;18.60;75.80;;;;;;4174079;28;20049;-68
2022/06/07 10:36:39;;;;;;;0.00;0.00;;;18.60;75.80;;;;;;4181581;28;20048;-68
2022/06/07 10:39:30;;;;;;;0.00;0.00;;;18.70;76.00;;;;;;4184733;28;20170;-68
2022/06/07 10:42:02;;;;;;;0.20;0.20;;;18.60;76.00;;;;;;4188877;28;20059;-68
2022/06/07 10:44:29;;;;;;;;;;;18.70;76.00;;;;;;4180889;28;20426;-68
2022/06/07 10:46:51;;;;;;;0.00;0.00;;;18.70;75.90;;;;;;4181270;28;19929;-70
2022/06/07 10:49:25;;;;;;;0.00;0.00;;;18.70;76.00;;;;;;4180949;28;20156;-68
2022/06/07 10:54:47;;;;;;;0.00;0.00;;;18.70;75.90;;;;;;4197649;28;20128;-67
2022/06/07 10:57:16;;;;;;;0.00;0.00;;;18.70;75.90;;;;;;4172959;28;20048;-69
2022/06/07 10:59:40;;;;;;;0.73;0.73;;;18.70;75.90;;;;;;4176172;28;20056;-69
2022/06/07 11:02:17;;;;;;;0.00;0.00;;;18.70;75.90;;;;;;4179920;28;20460;-68
2022/06/07 11:10:21;;;;;;;0.00;0.00;;;18.70;75.80;;;;;;4191836;28;20052;-69
2022/06/07 11:12:51;;;;;;;0.00;0.00;;;18.80;75.90;;;;;;4181919;28;20068;-68
2022/06/07 11:15:18;;;;;;;0.00;0.00;;;18.80;75.90;;;;;;4175740;28;20832;-69
2022/06/07 11:17:48;;;;;;;0.00;0.00;;;18.80;75.90;;;;;;4190581;28;20048;-69
2022/06/07 11:20:18;;;;;;;0.05;0.05;;;18.80;75.90;;;;;;4189505;28;20068;-69
2022/06/07 11:22:56;;;;;;;0.00;0.00;;;18.80;75.90;;;;;;4173919;28;20053;-69
2022/06/07 11:25:31;;;;;;;1.10;1.00;;;18.80;76.00;;;;;;4183023;28;20041;-69
2022/06/07 11:27:54;;;;;;;0.00;0.00;;;18.80;75.90;;;;;;4190840;28;20395;-67
2022/06/07 11:30:41;;;;;;;0.20;0.20;;;18.80;75.90;;;;;;4186717;28;20392;-66
2022/06/07 11:33:06;;;;;;;0.35;0.35;;;18.80;75.90;;;;;;4188020;28;20048;-67
2022/06/07 11:36:17;;;;;;;0.00;0.00;;;18.70;75.80;;;;;;4179501;28;20071;-68
2022/06/07 11:39:03;;;;;;;0.00;0.00;;;18.70;75.80;;;;;;4190938;28;20052;-68
2022/06/07 11:41:47;;;;;;;0.00;0.00;;;18.80;76.00;;;;;;4191351;28;20053;-70
2022/06/07 11:44:58;;;;;;;0.00;0.00;;;18.80;76.20;;;;;;4191361;28;20479;-69
2022/06/07 11:47:26;;;;;;;0.00;0.00;;;18.80;76.30;;;;;;4138121;28;20681;-69
2022/06/07 11:50:10;;;;;;;0.00;0.00;;;18.80;76.00;;;;;;4184805;28;20049;-68
2022/06/07 11:52:34;;;;;;;0.00;0.00;;;18.80;75.70;;;;;;4186696;28;20075;-68
2022/06/07 11:55:06;;;;;;;0.00;0.00;;;18.90;75.80;;;;;;4190833;28;20135;-68
2022/06/07 11:58:04;;;;;;;0.00;0.00;;;18.80;75.80;;;;;;4183605;28;20917;-69
2022/06/07 12:00:46;;;;;;;0.00;0.00;;;18.90;75.80;;;;;;4171619;28;20045;-68
2022/06/07 12:03:33;;;;;;;0.00;0.00;;;18.90;75.90;;;;;;4190844;28;20488;-69
2022/06/07 12:05:58;;;;;;;0.00;0.00;;;18.90;75.90;;;;;;4180490;28;20044;-69
2022/06/07 12:08:25;;;;;;;0.00;0.00;;;18.90;75.90;;;;;;4175219;28;20567;-69
2022/06/07 12:11:00;;;;;;;1.08;0.70;;;18.90;75.80;;;;;;4186698;28;20059;-69
2022/06/07 12:16:02;;;;;;;0.35;0.35;;;19.00;75.80;;;;;;4179002;28;20049;-69
2022/06/07 12:18:27;;;;;;;0.00;0.00;;;19.00;75.70;;;;;;4186881;28;20451;-70
2022/06/07 12:20:56;;;;;;;0.20;0.20;;;19.10;75.50;;;;;;4175058;28;20045;-69
2022/06/07 12:23:23;;;;;;;0.00;0.00;;;19.10;75.40;;;;;;4183658;28;20049;-70
2022/06/07 12:25:58;;;;;;;0.00;0.00;;;19.10;75.30;;;;;;4178679;28;20492;-69
2022/06/07 12:28:23;;;;;;;0.00;0.00;;;19.10;75.10;;;;;;4174672;28;20128;-68
2022/06/07 12:30:45;;;;;;;0.00;0.00;;;19.20;74.90;;;;;;4188995;28;20052;-68
2022/06/07 12:33:15;;;;;;;0.10;0.10;;;19.20;74.80;;;;;;4189363;28;20049;-69
2022/06/07 12:35:37;;;;;;;0.00;0.00;;;19.30;75.20;;;;;;4174691;28;20080;-68
2022/06/07 12:38:01;;;;;;;0.00;0.00;;;19.30;75.20;;;;;;4174608;28;20511;-67
2022/06/07 12:40:35;;;;;;;0.10;0.10;;;19.40;75.40;;;;;;4183678;28;20053;-69
2022/06/07 12:43:00;;;;;;;0.20;0.20;;;19.40;74.90;;;;;;4174639;28;20068;-69
2022/06/07 12:45:24;;;;;;;0.00;0.00;;;19.40;74.70;;;;;;4183428;28;20040;-68
2022/06/07 12:47:46;;;;;;;0.00;0.00;;;19.40;74.30;;;;;;4158910;28;20141;-69
2022/06/07 12:50:21;;;;;;;0.00;0.00;;;19.50;74.10;;;;;;4180210;28;20128;-69
2022/06/07 12:52:50;;;;;;;0.00;0.00;;;19.50;73.90;;;;;;4185700;28;20063;-69
2022/06/07 12:55:24;;;;;;;0.00;0.00;;;19.50;73.70;;;;;;4173926;28;20052;-69
2022/06/07 12:57:54;;;;;;;0.00;0.00;;;19.60;73.70;;;;;;4189859;28;20484;-68
2022/06/07 13:00:21;;;;;;;0.00;0.00;;;19.50;73.50;;;;;;4187656;28;20048;-68
2022/06/07 13:02:47;;;;;;;0.03;0.03;;;19.50;73.40;;;;;;4190568;28;20135;-68
2022/06/07 13:05:12;;;;;;;0.17;0.17;;;19.60;73.40;;;;;;4177139;28;20063;-68
2022/06/07 13:07:42;;;;;;;0.00;0.00;;;19.60;73.30;;;;;;4189744;28;20044;-68
2022/06/07 13:10:06;;;;;;;0.00;0.00;;;19.50;73.30;;;;;;4188303;28;20404;-68
2022/06/07 13:12:31;;;;;;;1.00;1.00;;;19.50;73.40;;;;;;4188911;28;20063;-68
2022/06/07 13:14:57;;;;;;;0.55;0.55;;;19.50;73.40;;;;;;4188202;28;20531;-69
2022/06/07 13:17:32;;;;;;;0.32;0.32;;;19.50;73.40;;;;;;4188416;28;20047;-69
2022/06/07 13:19:54;;;;;;;0.85;0.85;;;19.50;73.20;;;;;;4189417;28;20055;-68